Time;durP1;ratioP1;P1;durP2;ratioP2;P2;SDS_P1;SDS_P2;PMS_P1;PMS_P2;Temp;Humidity;BMP_temperature;BMP_pressure;BME280_temperature;BME280_humidity;BME280_pressure;Samples;Min_cycle;Max_cycle;Signal;HPM_P1;HPM_P2
2022/01/14 00:04:54;;;;;;;61.93;30.63;;;2.90;99.90;;;;;;10370331;28;20308;-73
2022/01/14 00:09:55;;;;;;;67.60;32.73;;;2.90;99.90;;;;;;10350503;28;20229;-73
2022/01/14 00:15:12;;;;;;;64.57;32.13;;;3.00;99.90;;;;;;10360035;28;20233;-73
2022/01/14 00:20:12;;;;;;;66.10;33.33;;;3.00;99.90;;;;;;10358054;28;20223;-73
2022/01/14 00:35:52;;;;;;;66.67;34.47;;;3.10;99.90;;;;;;10359406;28;20236;-74
2022/01/14 00:40:53;;;;;;;81.13;37.80;;;3.10;99.90;;;;;;10353461;28;20346;-74
2022/01/14 00:45:55;;;;;;;61.97;33.00;;;3.10;99.90;;;;;;10372534;28;20311;-75
2022/01/14 00:50:57;;;;;;;66.70;33.90;;;3.10;99.90;;;;;;10367076;28;20609;-74
2022/01/14 00:56:20;;;;;;;56.73;32.07;;;3.00;99.90;;;;;;10365450;28;20613;-73
2022/01/14 01:01:20;;;;;;;63.10;32.53;;;3.10;99.90;;;;;;10366781;28;20711;-73
2022/01/14 01:06:21;;;;;;;75.90;32.80;;;3.00;99.90;;;;;;10369840;28;20229;-73
2022/01/14 01:11:27;;;;;;;70.13;31.50;;;3.00;99.90;;;;;;10369269;28;20275;-73
2022/01/14 01:16:27;;;;;;;56.10;31.80;;;3.00;99.90;;;;;;10350802;28;20222;-73
2022/01/14 01:21:28;;;;;;;51.70;30.73;;;3.00;99.90;;;;;;10379091;28;20688;-73
2022/01/14 01:26:36;;;;;;;50.93;28.27;;;3.00;99.90;;;;;;10367279;28;20268;-74
2022/01/14 01:31:40;;;;;;;51.87;30.33;;;2.90;99.90;;;;;;10367560;28;20235;-73
2022/01/14 01:36:43;;;;;;;59.13;30.27;;;2.80;99.90;;;;;;10355357;28;20225;-74
2022/01/14 01:41:48;;;;;;;46.70;27.77;;;2.80;99.90;;;;;;10378850;28;20216;-74
2022/01/14 01:46:50;;;;;;;58.37;29.33;;;2.70;99.90;;;;;;10354608;28;20225;-73
2022/01/14 01:51:52;;;;;;;51.33;27.70;;;2.60;99.90;;;;;;10379588;28;20294;-74
2022/01/14 01:56:55;;;;;;;47.23;27.03;;;2.60;99.90;;;;;;10363663;28;20222;-74
2022/01/14 02:01:58;;;;;;;62.70;27.17;;;2.70;99.90;;;;;;10368693;28;20728;-74
2022/01/14 02:06:59;;;;;;;54.57;28.97;;;2.70;99.90;;;;;;10372197;28;20319;-73
2022/01/14 02:12:08;;;;;;;56.50;28.03;;;2.60;99.90;;;;;;10369338;28;20312;-72
2022/01/14 02:27:14;;;;;;;43.20;25.70;;;2.60;99.90;;;;;;10362063;28;20221;-74
2022/01/14 02:32:15;;;;;;;44.70;25.50;;;2.50;99.90;;;;;;10344388;28;20252;-74
2022/01/14 02:37:19;;;;;;;54.57;26.87;;;2.40;99.90;;;;;;10337277;28;20245;-72
2022/01/14 02:42:20;;;;;;;43.00;25.93;;;2.40;99.90;;;;;;10376075;28;20225;-74
2022/01/14 02:47:20;;;;;;;43.23;24.83;;;2.40;99.90;;;;;;10354665;28;20230;-73
2022/01/14 02:52:30;;;;;;;77.90;26.83;;;2.50;99.90;;;;;;10368930;28;20219;-72
2022/01/14 02:57:32;;;;;;;55.50;27.33;;;2.40;99.90;;;;;;10364894;28;20253;-73
2022/01/14 03:02:35;;;;;;;43.43;25.73;;;2.30;99.90;;;;;;10350953;28;20213;-73
2022/01/14 03:07:37;;;;;;;59.53;26.63;;;2.40;99.90;;;;;;10350187;28;20238;-73
2022/01/14 03:12:39;;;;;;;42.87;24.70;;;2.50;99.90;;;;;;10366680;28;20236;-73
2022/01/14 03:17:40;;;;;;;36.40;22.13;;;2.50;99.90;;;;;;10374052;28;20229;-73
2022/01/14 03:22:52;;;;;;;36.87;21.90;;;2.40;99.90;;;;;;10369021;28;20689;-73
2022/01/14 03:27:54;;;;;;;36.23;20.80;;;2.30;99.90;;;;;;10364071;28;20297;-73
2022/01/14 03:32:55;;;;;;;46.13;21.50;;;2.30;99.90;;;;;;10364502;28;20712;-73
2022/01/14 03:37:56;;;;;;;36.10;21.20;;;2.30;99.90;;;;;;10359467;28;20229;-73
2022/01/14 03:42:56;;;;;;;41.43;20.93;;;2.30;99.90;;;;;;10366495;28;20714;-73
2022/01/14 03:47:57;;;;;;;31.00;19.17;;;2.20;99.90;;;;;;10360654;28;20225;-72
2022/01/14 03:52:57;;;;;;;52.77;19.47;;;2.10;99.90;;;;;;10361889;28;20723;-72
2022/01/14 03:57:58;;;;;;;42.47;19.70;;;2.00;99.90;;;;;;10361276;28;20228;-73
2022/01/14 04:02:59;;;;;;;35.97;19.47;;;2.00;99.90;;;;;;10367865;28;20234;-73
2022/01/14 04:08:00;;;;;;;38.67;18.93;;;2.00;99.90;;;;;;10367902;28;20256;-72
2022/01/14 04:13:05;;;;;;;25.87;17.23;;;2.00;99.90;;;;;;10359318;28;20237;-73
2022/01/14 04:18:13;;;;;;;26.27;17.00;;;2.00;99.90;;;;;;10367989;28;20229;-73
2022/01/14 04:23:25;;;;;;;27.27;17.53;;;1.90;99.90;;;;;;10352358;28;20315;-72
2022/01/14 04:28:30;;;;;;;32.27;18.13;;;1.90;99.90;;;;;;10363465;28;20230;-72
2022/01/14 04:33:32;;;;;;;24.47;16.40;;;1.90;99.90;;;;;;10359339;28;20232;-73
2022/01/14 04:38:34;;;;;;;33.03;13.63;;;1.80;99.90;;;;;;10333136;28;20226;-73
2022/01/14 04:43:34;;;;;;;20.63;13.50;;;1.80;99.90;;;;;;10355200;28;20659;-74
2022/01/14 04:48:37;;;;;;;30.17;14.47;;;1.70;99.90;;;;;;10362495;28;20328;-73
2022/01/14 04:53:38;;;;;;;47.33;15.20;;;1.60;99.90;;;;;;10356171;28;20225;-75
2022/01/14 04:58:39;;;;;;;45.20;15.90;;;1.60;99.90;;;;;;10359290;28;20229;-73
2022/01/14 05:03:40;;;;;;;26.33;15.07;;;1.60;99.90;;;;;;10352865;28;20237;-73
2022/01/14 05:08:41;;;;;;;32.77;16.67;;;1.60;99.90;;;;;;10348142;28;20221;-72
2022/01/14 05:13:42;;;;;;;43.43;15.93;;;1.60;99.90;;;;;;10357037;28;20748;-73
2022/01/14 05:18:42;;;;;;;26.90;13.93;;;1.60;99.90;;;;;;10335110;28;20289;-72
2022/01/14 05:23:43;;;;;;;35.83;15.07;;;1.60;99.90;;;;;;10358238;28;20304;-72
2022/01/14 05:28:43;;;;;;;29.10;12.47;;;1.60;99.90;;;;;;10365166;28;20229;-74
2022/01/14 05:33:46;;;;;;;34.23;12.30;;;1.60;99.90;;;;;;10357756;28;20740;-72
2022/01/14 05:38:47;;;;;;;20.97;10.87;;;1.50;99.90;;;;;;10361079;28;20279;-73
2022/01/14 05:43:47;;;;;;;24.27;10.97;;;1.50;99.90;;;;;;10356475;28;20307;-71
2022/01/14 05:48:48;;;;;;;33.80;12.00;;;1.40;99.90;;;;;;10364849;28;20229;-73
2022/01/14 05:53:49;;;;;;;17.97;10.90;;;1.40;99.90;;;;;;10363144;28;20236;-72
2022/01/14 05:58:50;;;;;;;23.63;12.03;;;1.40;99.90;;;;;;10372638;28;20225;-72
2022/01/14 06:03:50;;;;;;;26.20;10.33;;;1.40;99.90;;;;;;10357459;28;20225;-72
2022/01/14 06:08:51;;;;;;;26.37;11.70;;;1.40;99.90;;;;;;10344160;28;20229;-72
2022/01/14 06:13:53;;;;;;;19.40;9.53;;;1.40;99.90;;;;;;10371035;28;20232;-72
2022/01/14 06:18:53;;;;;;;22.80;9.23;;;1.30;99.90;;;;;;10342869;28;20233;-73
2022/01/14 06:23:54;;;;;;;17.00;9.40;;;1.30;99.90;;;;;;10365742;28;20606;-72
2022/01/14 06:28:55;;;;;;;19.33;9.90;;;1.30;99.90;;;;;;10361774;28;20232;-73
2022/01/14 06:33:55;;;;;;;14.57;8.57;;;1.40;99.90;;;;;;10360604;28;20233;-74
2022/01/14 06:38:56;;;;;;;14.43;8.17;;;1.30;99.90;;;;;;10370744;28;20252;-74
2022/01/14 06:43:58;;;;;;;13.03;7.77;;;1.20;99.90;;;;;;10377281;28;20316;-74
2022/01/14 06:48:58;;;;;;;16.53;7.70;;;1.30;99.90;;;;;;10359817;28;20660;-74
2022/01/14 06:53:59;;;;;;;11.37;7.60;;;1.30;99.90;;;;;;10390098;28;20334;-74
2022/01/14 06:58:59;;;;;;;12.43;6.57;;;1.20;99.90;;;;;;10356042;28;20221;-74
2022/01/14 07:04:00;;;;;;;12.77;7.50;;;1.20;99.90;;;;;;10368901;28;20280;-74
2022/01/14 07:09:01;;;;;;;13.87;8.40;;;1.20;99.90;;;;;;10354902;28;20221;-74
2022/01/14 07:14:06;;;;;;;23.27;9.60;;;1.20;99.90;;;;;;10373544;28;20233;-73
2022/01/14 07:19:06;;;;;;;14.90;8.80;;;1.30;99.90;;;;;;10355160;28;20304;-74
2022/01/14 07:24:07;;;;;;;14.43;8.50;;;1.30;99.90;;;;;;10375577;28;20304;-73
2022/01/14 07:29:08;;;;;;;18.00;9.27;;;1.30;99.90;;;;;;10363927;28;20696;-73
2022/01/14 07:34:09;;;;;;;17.60;9.27;;;1.20;99.90;;;;;;10356038;28;20316;-74
2022/01/14 07:39:09;;;;;;;26.07;10.30;;;1.30;99.90;;;;;;10367773;28;20681;-73
2022/01/14 07:44:11;;;;;;;16.77;9.23;;;1.30;99.90;;;;;;10372811;28;20240;-73
2022/01/14 07:49:12;;;;;;;19.10;11.00;;;1.30;99.90;;;;;;10381881;28;20235;-74
2022/01/14 07:54:12;;;;;;;32.67;10.90;;;1.40;99.90;;;;;;10364863;28;20255;-73
2022/01/14 07:59:15;;;;;;;19.53;11.20;;;1.40;99.90;;;;;;10358813;28;20303;-73
2022/01/14 08:04:22;;;;;;;26.07;11.80;;;1.40;99.90;;;;;;10372310;28;20249;-74
2022/01/14 08:09:23;;;;;;;19.83;11.10;;;1.50;99.90;;;;;;10356852;28;20717;-73
2022/01/14 08:14:23;;;;;;;69.37;12.80;;;1.60;99.90;;;;;;10360210;28;20327;-73
2022/01/14 08:19:24;;;;;;;23.73;12.10;;;1.60;99.90;;;;;;10348744;28;20262;-74
2022/01/14 08:24:25;;;;;;;39.23;11.97;;;1.70;99.90;;;;;;10370127;28;20921;-74
2022/01/14 08:29:28;;;;;;;30.10;13.60;;;1.70;99.90;;;;;;10372361;28;20335;-75
2022/01/14 08:34:29;;;;;;;23.53;12.40;;;1.60;99.90;;;;;;10370777;28;20241;-79
2022/01/14 08:39:30;;;;;;;25.63;13.57;;;1.70;99.90;;;;;;10332234;28;20308;-74
2022/01/14 08:44:31;;;;;;;28.97;14.47;;;1.80;99.90;;;;;;10374182;28;20323;-74
2022/01/14 08:49:33;;;;;;;29.73;15.27;;;1.90;99.90;;;;;;10375314;28;20258;-75
2022/01/14 08:54:34;;;;;;;28.53;15.10;;;1.90;99.90;;;;;;10375967;28;20236;-75
2022/01/14 08:59:36;;;;;;;25.73;14.87;;;1.90;99.90;;;;;;10374718;28;20213;-74
2022/01/14 09:04:37;;;;;;;41.67;15.67;;;1.90;99.90;;;;;;10364018;28;20223;-72
2022/01/14 09:09:37;;;;;;;33.30;17.13;;;2.00;99.90;;;;;;10351205;28;20229;-72
2022/01/14 09:14:38;;;;;;;31.57;17.50;;;2.10;99.90;;;;;;10343797;28;20237;-71
2022/01/14 09:19:40;;;;;;;32.60;18.00;;;2.20;99.90;;;;;;10348578;28;20331;-70
2022/01/14 09:24:41;;;;;;;33.23;19.17;;;2.30;99.90;;;;;;10334461;28;20573;-72
2022/01/14 09:29:43;;;;;;;36.70;19.67;;;2.30;99.90;;;;;;10343125;28;20225;-74
2022/01/14 09:34:46;;;;;;;35.13;19.47;;;2.40;99.90;;;;;;10357635;28;20233;-74
2022/01/14 09:39:47;;;;;;;32.07;18.77;;;2.50;99.90;;;;;;10359982;28;20323;-73
2022/01/14 09:44:48;;;;;;;35.03;20.70;;;2.50;99.90;;;;;;10377561;28;20315;-73
2022/01/14 09:49:48;;;;;;;33.57;19.90;;;2.60;99.90;;;;;;10372036;28;20602;-74
2022/01/14 09:54:51;;;;;;;40.13;23.07;;;2.80;99.90;;;;;;10366804;28;20655;-74
2022/01/14 09:59:52;;;;;;;43.27;23.33;;;2.70;99.90;;;;;;10340174;28;20650;-72
2022/01/14 10:04:52;;;;;;;37.77;22.67;;;2.80;99.90;;;;;;10358257;28;20225;-73
2022/01/14 10:09:58;;;;;;;41.27;22.17;;;2.90;99.90;;;;;;10358847;28;20226;-74
2022/01/14 10:15:09;;;;;;;37.27;21.57;;;3.10;99.90;;;;;;10357100;28;20230;-73
2022/01/14 10:20:13;;;;;;;39.20;21.83;;;3.10;99.90;;;;;;10363094;28;20655;-74
2022/01/14 10:25:18;;;;;;;44.67;23.53;;;3.20;99.90;;;;;;10368373;28;20221;-75
2022/01/14 10:30:29;;;;;;;53.37;24.03;;;3.30;99.90;;;;;;10357566;28;20192;-74
2022/01/14 10:35:35;;;;;;;44.33;24.60;;;3.30;99.90;;;;;;10354136;28;21022;-75
2022/01/14 10:40:43;;;;;;;41.57;23.77;;;3.20;99.90;;;;;;10369053;28;20221;-75
2022/01/14 10:45:45;;;;;;;45.57;24.87;;;3.30;99.90;;;;;;10363922;28;20233;-75
2022/01/14 10:50:52;;;;;;;42.60;25.03;;;3.40;99.90;;;;;;10338397;28;20225;-73
2022/01/14 10:56:17;;;;;;;42.17;24.53;;;3.40;99.90;;;;;;10358789;28;20225;-74
2022/01/14 11:01:21;;;;;;;47.40;24.83;;;3.40;99.90;;;;;;10350373;28;20222;-74
2022/01/14 11:06:23;;;;;;;51.00;27.10;;;3.40;99.90;;;;;;10352597;28;20222;-74
2022/01/14 11:11:26;;;;;;;39.47;24.07;;;3.50;99.90;;;;;;10343837;28;20308;-73
2022/01/14 11:16:27;;;;;;;46.33;26.30;;;3.70;99.90;;;;;;10341099;28;20233;-74
2022/01/14 11:26:49;;;;;;;46.63;26.67;;;3.80;99.90;;;;;;10368854;28;20228;-75
2022/01/14 11:31:58;;;;;;;50.63;27.90;;;3.90;99.90;;;;;;10374055;28;20280;-73
2022/01/14 11:37:34;;;;;;;47.57;27.57;;;4.00;99.90;;;;;;10360350;28;20860;-75
2022/01/14 11:42:59;;;;;;;45.33;34.88;;;4.20;99.90;;;;;;10356158;28;20466;-74
2022/01/14 11:48:02;;;;;;;38.80;27.57;;;4.30;99.90;;;;;;10341798;28;20251;-75
2022/01/14 11:53:03;;;;;;;39.47;26.37;;;4.30;99.90;;;;;;10349215;28;20226;-73
2022/01/14 11:58:07;;;;;;;44.13;35.63;;;4.30;99.90;;;;;;10343029;28;20425;-75
2022/01/14 12:03:07;;;;;;;47.53;37.63;;;4.20;99.90;;;;;;10362293;28;20435;-75
2022/01/14 12:08:10;;;;;;;45.53;35.47;;;4.20;99.90;;;;;;10346775;28;20419;-74
2022/01/14 12:13:40;;;;;;;40.23;28.13;;;4.20;99.90;;;;;;10371624;28;20236;-73
2022/01/14 12:19:02;;;;;;;41.67;34.92;;;4.30;99.90;;;;;;10348105;28;20427;-74
2022/01/14 12:24:21;;;;;;;39.03;27.10;;;4.30;99.90;;;;;;10359818;28;20222;-73
2022/01/14 12:29:46;;;;;;;40.70;28.23;;;4.20;99.90;;;;;;10350575;28;20213;-73
2022/01/14 12:34:55;;;;;;;41.07;25.87;;;4.30;99.90;;;;;;10361886;28;20302;-73
2022/01/14 12:40:12;;;;;;;42.47;26.63;;;4.40;99.90;;;;;;10354703;28;20229;-73
2022/01/14 12:45:28;;;;;;;42.93;27.57;;;4.50;99.90;;;;;;10356040;28;20236;-74
2022/01/14 12:50:30;;;;;;;43.87;27.93;;;4.50;99.90;;;;;;10359851;28;20224;-73
2022/01/14 12:55:36;;;;;;;44.83;27.57;;;4.40;99.90;;;;;;10354888;28;20261;-73
2022/01/14 13:00:38;;;;;;;51.30;28.50;;;4.30;99.90;;;;;;10365445;28;20308;-74
2022/01/14 13:05:38;;;;;;;54.47;28.53;;;4.20;99.90;;;;;;10366733;28;20332;-75
2022/01/14 13:10:40;;;;;;;45.40;27.43;;;4.10;99.90;;;;;;10353948;28;20328;-74
2022/01/14 13:15:41;;;;;;;48.27;26.70;;;4.00;99.90;;;;;;10363272;28;20261;-75
2022/01/14 13:20:42;;;;;;;46.80;28.80;;;4.00;99.90;;;;;;10365559;28;20248;-75
2022/01/14 13:25:42;;;;;;;41.43;26.30;;;3.90;99.90;;;;;;10353920;28;20600;-74
2022/01/14 13:30:44;;;;;;;43.87;28.07;;;3.90;99.90;;;;;;10366879;28;20286;-74
2022/01/14 13:35:46;;;;;;;48.73;28.53;;;3.90;99.90;;;;;;10367462;28;20240;-73
2022/01/14 13:40:52;;;;;;;43.57;28.37;;;3.90;99.90;;;;;;10353685;28;20221;-74
2022/01/14 13:46:06;;;;;;;48.63;30.47;;;3.80;99.90;;;;;;10351557;28;20233;-73
2022/01/14 13:51:13;;;;;;;46.40;28.93;;;3.80;99.90;;;;;;10369994;28;20579;-75
2022/01/14 13:56:19;;;;;;;51.57;30.63;;;3.70;99.90;;;;;;10372112;28;20711;-74
2022/01/14 14:01:20;;;;;;;49.17;30.17;;;3.70;99.90;;;;;;10362142;28;20229;-73
2022/01/14 14:06:50;;;;;;;48.53;30.20;;;3.80;99.90;;;;;;10357807;28;20720;-73
2022/01/14 14:12:23;;;;;;;58.37;31.30;;;3.70;99.90;;;;;;10351228;28;20232;-73
2022/01/14 14:17:24;;;;;;;47.03;30.17;;;3.50;99.90;;;;;;10354334;28;20309;-74
2022/01/14 14:22:37;;;;;;;48.30;30.37;;;3.50;99.90;;;;;;10377600;28;20709;-74
2022/01/14 14:27:40;;;;;;;45.93;28.83;;;3.50;99.90;;;;;;10363932;28;20217;-73
2022/01/14 14:32:42;;;;;;;52.33;30.87;;;3.40;99.90;;;;;;10369670;28;20236;-75
2022/01/14 14:37:48;;;;;;;47.87;28.50;;;3.40;99.90;;;;;;10358872;28;20221;-73
2022/01/14 14:42:48;;;;;;;50.07;30.47;;;3.20;99.90;;;;;;10370845;28;20225;-75
2022/01/14 14:47:49;;;;;;;50.17;39.27;;;3.20;99.90;;;;;;10388841;28;20441;-73
2022/01/14 14:52:51;;;;;;;50.23;30.63;;;3.20;99.90;;;;;;10352477;28;20300;-76
2022/01/14 14:57:52;;;;;;;54.03;31.70;;;3.20;99.90;;;;;;10391112;28;20715;-72
2022/01/14 15:02:54;;;;;;;53.57;42.40;;;3.10;99.90;;;;;;10382653;28;20811;-74
2022/01/14 15:07:56;;;;;;;54.33;33.00;;;3.10;99.90;;;;;;10390469;28;20550;-73
2022/01/14 15:12:59;;;;;;;60.00;34.67;;;3.20;99.90;;;;;;10353285;28;20252;-74
2022/01/14 15:23:08;;;;;;;70.47;36.33;;;3.30;99.90;;;;;;10383836;28;20229;-75
2022/01/14 15:28:13;;;;;;;63.77;35.00;;;3.20;99.90;;;;;;10374327;28;20482;-74
2022/01/14 15:33:14;;;;;;;63.37;35.03;;;3.10;99.90;;;;;;10380886;28;20827;-74
2022/01/14 15:38:15;;;;;;;70.03;36.27;;;3.00;99.90;;;;;;10369394;28;20380;-72
2022/01/14 15:43:18;;;;;;;68.87;36.60;;;2.90;99.90;;;;;;10373460;28;20225;-73
2022/01/14 15:48:19;;;;;;;72.53;35.30;;;2.80;99.90;;;;;;10392796;28;20241;-75
2022/01/14 15:53:21;;;;;;;79.77;36.87;;;2.80;99.90;;;;;;10379001;28;20240;-75
2022/01/14 15:58:22;;;;;;;66.27;35.70;;;2.80;99.90;;;;;;10375290;28;20407;-74
2022/01/14 16:03:22;;;;;;;68.30;34.47;;;2.80;99.90;;;;;;10379176;28;20252;-74
2022/01/14 16:08:23;;;;;;;69.63;35.03;;;2.90;99.90;;;;;;10368504;28;20652;-75
2022/01/14 16:13:24;;;;;;;67.03;33.70;;;2.90;99.90;;;;;;10376931;28;20233;-71
2022/01/14 16:18:25;;;;;;;71.47;36.23;;;3.00;99.90;;;;;;10369460;28;20240;-75
2022/01/14 16:23:26;;;;;;;65.20;35.53;;;3.00;99.90;;;;;;10391359;28;20521;-74
2022/01/14 16:28:27;;;;;;;65.17;33.40;;;3.00;99.90;;;;;;10374657;28;20224;-74
2022/01/14 16:33:30;;;;;;;73.97;37.07;;;3.00;99.90;;;;;;10377218;28;20239;-73
2022/01/14 16:38:31;;;;;;;76.10;38.77;;;3.00;99.90;;;;;;10380061;28;20791;-77
2022/01/14 16:43:34;;;;;;;62.57;35.63;;;2.90;99.90;;;;;;10352241;28;20229;-75
2022/01/14 16:48:35;;;;;;;69.57;35.13;;;3.00;99.90;;;;;;10363524;28;20243;-75
2022/01/14 16:53:35;;;;;;;67.97;35.23;;;3.00;99.90;;;;;;10378808;28;20271;-75
2022/01/14 16:58:36;;;;;;;71.33;36.77;;;2.90;99.90;;;;;;10370664;28;20226;-75
2022/01/14 17:03:37;;;;;;;92.73;39.47;;;3.00;99.90;;;;;;10372676;28;20221;-74
2022/01/14 17:08:38;;;;;;;72.23;36.00;;;3.00;99.90;;;;;;10373140;28;20221;-74
2022/01/14 17:13:38;;;;;;;64.03;34.30;;;2.90;99.90;;;;;;10371229;28;20901;-74
2022/01/14 17:18:39;;;;;;;75.33;35.70;;;2.80;99.90;;;;;;10365440;28;20416;-75
2022/01/14 17:23:42;;;;;;;70.57;35.73;;;2.80;99.90;;;;;;10360817;28;20772;-72
2022/01/14 17:28:43;;;;;;;75.07;36.83;;;2.90;99.90;;;;;;10364464;28;20241;-72
2022/01/14 17:33:44;;;;;;;72.07;32.50;;;2.80;99.90;;;;;;10366398;28;20737;-72
2022/01/14 17:38:47;;;;;;;106.07;31.50;;;2.80;99.90;;;;;;10374696;28;20734;-73
2022/01/14 17:43:48;;;;;;;63.23;28.10;;;2.60;99.90;;;;;;10351502;28;20324;-72
2022/01/14 17:48:49;;;;;;;65.47;30.67;;;2.60;99.90;;;;;;10383225;28;20722;-74
2022/01/14 17:53:51;;;;;;;77.13;37.93;;;2.60;99.90;;;;;;10345934;28;20806;-71
2022/01/14 17:58:51;;;;;;;69.27;31.07;;;2.70;99.90;;;;;;10363749;28;20221;-72
2022/01/14 18:03:52;;;;;;;55.30;28.23;;;2.80;99.90;;;;;;10367628;28;20245;-72
2022/01/14 18:08:53;;;;;;;53.37;29.23;;;2.70;99.90;;;;;;10368398;28;20228;-74
2022/01/14 18:14:16;;;;;;;109.10;28.23;;;2.60;99.90;;;;;;10359105;28;20229;-74
2022/01/14 18:19:18;;;;;;;49.63;25.83;;;2.50;99.90;;;;;;10365530;28;20658;-74
2022/01/14 18:24:19;;;;;;;48.60;25.30;;;2.30;99.90;;;;;;10362181;28;20230;-74
2022/01/14 18:29:19;;;;;;;55.33;25.73;;;2.40;99.90;;;;;;10385801;28;20225;-75
2022/01/14 18:34:22;;;;;;;57.87;25.47;;;2.40;99.90;;;;;;10350536;28;20222;-76
2022/01/14 18:39:22;;;;;;;76.97;22.27;;;2.30;99.90;;;;;;10374498;28;20564;-74
2022/01/14 18:44:23;;;;;;;48.57;21.10;;;2.20;99.90;;;;;;10375365;28;20304;-76
2022/01/14 18:49:24;;;;;;;43.47;21.90;;;2.20;99.90;;;;;;10363669;28;20221;-76
2022/01/14 18:54:25;;;;;;;72.30;22.37;;;2.10;99.90;;;;;;10372266;28;20697;-74
2022/01/14 18:59:25;;;;;;;53.47;21.57;;;2.10;99.90;;;;;;10372894;28;20284;-75
2022/01/14 19:04:26;;;;;;;53.27;23.43;;;2.10;99.90;;;;;;10369805;28;20233;-74
2022/01/14 19:09:28;;;;;;;60.63;20.87;;;2.00;99.90;;;;;;10383250;28;20243;-75
2022/01/14 19:14:28;;;;;;;52.57;22.27;;;1.90;99.90;;;;;;10382586;28;20316;-74
2022/01/14 19:19:29;;;;;;;39.53;20.77;;;1.80;99.90;;;;;;10364176;28;20284;-75
2022/01/14 19:24:30;;;;;;;46.60;20.10;;;1.80;99.90;;;;;;10360945;28;20221;-72
2022/01/14 19:29:31;;;;;;;62.00;19.33;;;1.80;99.90;;;;;;10381137;28;20299;-74
2022/01/14 19:34:33;;;;;;;58.30;20.60;;;1.80;99.90;;;;;;10360795;28;20232;-74
2022/01/14 19:39:34;;;;;;;45.10;19.30;;;1.80;99.90;;;;;;10361220;28;20245;-73
2022/01/14 19:44:35;;;;;;;50.40;19.07;;;1.80;99.90;;;;;;10374312;28;20228;-74
2022/01/14 19:49:36;;;;;;;37.97;17.87;;;1.70;99.90;;;;;;10355039;28;20697;-73
2022/01/14 19:54:40;;;;;;;35.20;19.50;;;1.70;99.90;;;;;;10356839;28;20224;-74
2022/01/14 19:59:41;;;;;;;38.27;18.07;;;1.70;99.90;;;;;;10396622;28;20212;-73
2022/01/14 20:04:42;;;;;;;44.43;18.77;;;1.70;99.90;;;;;;10374784;28;20225;-73
2022/01/14 20:09:43;;;;;;;48.67;19.73;;;1.70;99.90;;;;;;10351732;28;20697;-74
2022/01/14 20:14:43;;;;;;;35.00;19.13;;;1.70;99.90;;;;;;10389649;28;20248;-75
2022/01/14 20:19:44;;;;;;;44.33;18.57;;;1.70;99.90;;;;;;10372145;28;20254;-74
2022/01/14 20:24:45;;;;;;;39.37;18.23;;;1.60;99.90;;;;;;10370541;28;20225;-75
2022/01/14 20:29:51;;;;;;;46.60;18.90;;;1.50;99.90;;;;;;10374807;28;20217;-74
2022/01/14 20:34:52;;;;;;;42.07;17.57;;;1.60;99.90;;;;;;10387477;28;20236;-73
2022/01/14 20:39:53;;;;;;;44.03;19.40;;;1.50;99.90;;;;;;10377426;28;20220;-73
2022/01/14 20:45:05;;;;;;;36.63;17.63;;;1.50;99.90;;;;;;10377415;28;20316;-73
2022/01/14 20:50:06;;;;;;;40.67;18.27;;;1.50;99.90;;;;;;10370277;28;20233;-74
2022/01/14 20:55:07;;;;;;;46.33;19.57;;;1.50;99.90;;;;;;10356215;28;20213;-75
2022/01/14 21:00:12;;;;;;;39.10;18.63;;;1.60;99.90;;;;;;10358922;28;20600;-73
2022/01/14 21:05:15;;;;;;;55.77;19.47;;;1.60;99.90;;;;;;10372572;28;20205;-75
2022/01/14 21:10:16;;;;;;;60.10;20.23;;;1.50;99.90;;;;;;10386767;28;20244;-74
2022/01/14 21:15:17;;;;;;;38.33;20.30;;;1.40;99.90;;;;;;10369264;28;20233;-74
2022/01/14 21:20:19;;;;;;;56.17;20.60;;;1.50;99.90;;;;;;10378792;28;20177;-73
2022/01/14 21:25:21;;;;;;;47.50;20.73;;;1.50;99.90;;;;;;10361614;28;20229;-72
2022/01/14 21:30:22;;;;;;;45.67;22.00;;;1.60;99.90;;;;;;10375002;28;20383;-72
2022/01/14 21:35:24;;;;;;;46.80;20.53;;;1.60;99.90;;;;;;10374602;28;20232;-74
2022/01/14 21:40:25;;;;;;;78.60;22.17;;;1.50;99.90;;;;;;10373910;28;20233;-75
2022/01/14 21:45:28;;;;;;;61.97;22.50;;;1.40;99.90;;;;;;10372750;28;20801;-72
2022/01/14 21:50:29;;;;;;;61.27;22.67;;;1.30;99.90;;;;;;10370919;28;20230;-76
2022/01/14 21:55:29;;;;;;;63.00;23.87;;;1.40;99.90;;;;;;10353608;28;20684;-75
2022/01/14 22:00:31;;;;;;;62.60;24.30;;;1.30;99.90;;;;;;10382008;28;20229;-76
2022/01/14 22:05:33;;;;;;;86.43;24.13;;;1.30;99.90;;;;;;10377111;28;20224;-75
2022/01/14 22:10:33;;;;;;;60.47;27.07;;;1.30;99.90;;;;;;10381889;28;20359;-76
2022/01/14 22:15:40;;;;;;;81.43;24.97;;;1.30;99.90;;;;;;10373738;28;20699;-78
2022/01/14 22:20:45;;;;;;;104.37;26.03;;;1.40;99.90;;;;;;10368712;28;20900;-76
2022/01/14 22:25:48;;;;;;;94.33;25.03;;;1.50;99.90;;;;;;10381210;28;20295;-74
2022/01/14 22:30:50;;;;;;;103.13;25.83;;;1.60;99.90;;;;;;10363056;28;20224;-75
2022/01/14 22:35:50;;;;;;;104.40;25.07;;;1.60;99.90;;;;;;10372462;28;20240;-76
2022/01/14 22:40:51;;;;;;;86.37;25.20;;;1.50;99.90;;;;;;10391297;28;20681;-75
2022/01/14 22:45:58;;;;;;;98.47;24.37;;;1.50;99.90;;;;;;10378677;28;20808;-75
2022/01/14 22:50:59;;;;;;;50.17;23.13;;;1.60;99.90;;;;;;10395830;28;20703;-75
2022/01/14 22:56:00;;;;;;;59.63;24.13;;;1.60;99.90;;;;;;10377839;28;20237;-75
2022/01/14 23:01:00;;;;;;;76.87;23.77;;;1.70;99.90;;;;;;10388378;28;20218;-74
2022/01/14 23:06:01;;;;;;;71.10;23.90;;;1.60;99.90;;;;;;10377841;28;20226;-76
2022/01/14 23:11:05;;;;;;;65.77;22.43;;;1.60;99.90;;;;;;10383374;28;20299;-75
2022/01/14 23:16:05;;;;;;;58.73;24.50;;;1.70;99.90;;;;;;10359002;28;20287;-75
2022/01/14 23:21:06;;;;;;;48.70;20.30;;;1.80;99.90;;;;;;10380864;28;20228;-73
2022/01/14 23:26:06;;;;;;;53.07;20.37;;;1.80;99.90;;;;;;10368492;28;20750;-75
2022/01/14 23:31:07;;;;;;;44.90;20.83;;;1.90;99.90;;;;;;10374854;28;20221;-74
2022/01/14 23:36:08;;;;;;;45.23;21.17;;;2.00;99.90;;;;;;10369900;28;20247;-75
2022/01/14 23:41:09;;;;;;;41.47;18.90;;;1.90;99.90;;;;;;10377073;28;20223;-74
2022/01/14 23:51:21;;;;;;;36.90;17.73;;;1.90;99.90;;;;;;10363724;28;20229;-75
2022/01/14 23:56:21;;;;;;;35.17;15.63;;;1.90;99.90;;;;;;10366163;28;20252;-74
